Maersk_kyrenia — VRGM8 — position and weather

sailwx.info

Track history (hours):
 
Tides and Currents Weather Stations Pressure Air Temp Water Temp Dewpoint Dewpoint Depression Visibility Wind Speed Wind Dir Waves Ship Positions

Maersk_kyrenia

Last reported at 2015-Aug-01 17:34 UTC. Time now 2015-Aug-01 18:14 UTC.
Position N 51°58' E 001°17'.

Length 300 m; draft 12.4 m.

MMSI: 477733600.

Date/timePositionNaut miles runAvg speedWind from/ knotsBaromVisibWave heightAir tempDewpointWater temp
2015-Aug-01 17:34N 51°58' E 001°17'0 0.0
2015-Aug-01 16:33N 51°58' E 001°17'0 0.0
2015-Aug-01 15:34N 51°58' E 001°17'0 0.0
2015-Aug-01 14:34N 51°58' E 001°17'0 0.0
2015-Aug-01 13:34N 51°58' E 001°17'0 0.0
2015-Aug-01 12:33N 51°58' E 001°17'0 0.0
2015-Aug-01 11:34N 51°58' E 001°17'0 0.0
2015-Aug-01 10:34N 51°58' E 001°17'0 0.0
2015-Aug-01 09:33N 51°58' E 001°17'0 0.0
2015-Aug-01 08:33N 51°58' E 001°17'0 0.5
2015-Aug-01 07:34N 51°57' E 001°18'7 7.5
2015-Aug-01 06:33N 51°56' E 001°30'9 9.1
2015-Aug-01 05:34N 51°51' E 001°42'4 3.6
2015-Aug-01 04:33N 51°53' E 001°48'1 0.7
2015-Aug-01 03:33N 51°52' E 001°48'6 5.9
2015-Aug-01 02:34N 51°46' E 001°49'8 8.0
2015-Aug-01 01:33N 51°38' E 001°50'1110.5
2015-Aug-01 00:34N 51°28' E 001°46'1111.0
2015-Jul-31 23:34N 51°18' E 001°41'1211.5
2015-Jul-31 22:33N 51°06' E 001°40'1414.3
2015-Jul-31 21:34N 50°54' E 001°29'1313.0
2015-Jul-31 20:33N 50°42' E 001°19'1313.2
2015-Jul-31 19:33N 50°33' E 001°04'1313.0
2015-Jul-31 18:34N 50°29' E 000°44'1312.5
2015-Jul-31 17:33N 50°25' E 000°26'5811.1
2015-Jul-31 12:17N 50°09' W 001°02'2112.4
2015-Jul-31 10:33N 50°03' W 001°34'1414.4
2015-Jul-31 09:34N 49°59' W 001°56'48313.6
2015-Jul-29 22:00N 43°42' W 009°18'5112.8 050 / 191018.9 5.4 2.018.012.719.0
2015-Jul-29 18:00N 42°54' W 009°42'5413.5 040 / 191016.7 5.4 2.018.014.620.4
2015-Jul-29 14:00N 42°00' W 009°48'7214.4 280 / 61017.1 5.4 0.523.018.321.0
2015-Jul-29 09:00N 40°48' W 009°48'6614.1 340 / 101018.310.8 0.522.018.919.3
2015-Jul-29 04:19N 39°42' W 009°51'1013.7
2015-Jul-29 03:33N 39°32' W 009°51'1413.9
2015-Jul-29 02:34N 39°18' W 009°51'1413.9
2015-Jul-29 01:33N 39°04' W 009°52'1413.9
2015-Jul-29 00:33N 38°50' W 009°52'1413.8
2015-Jul-28 23:33N 38°36' W 009°49'1413.5
2015-Jul-28 22:33N 38°23' W 009°46'1313.1
2015-Jul-28 21:33N 38°10' W 009°42'1313.2
2015-Jul-28 20:33N 37°57' W 009°38'1313.4
2015-Jul-28 19:33N 37°44' W 009°34'1313.2
2015-Jul-28 18:32N 37°31' W 009°30'3258.4
2015-Jul-28 18:00N 37°00' W 009°24'1944.3 350 / 291015.5 5.4 4.020.016.720.1
2015-Jul-28 17:33N 37°19' W 009°27'5911.8
2015-Jul-28 12:33N 36°36' W 008°36'1513.5
2015-Jul-28 11:25N 36°31' W 008°18'1313.7
2015-Jul-28 10:27N 36°27' W 008°03'1313.9
2015-Jul-28 09:32N 36°23' W 007°48'2013.9
2015-Jul-28 08:07N 36°17' W 007°24'5313.6
2015-Jul-28 04:12N 36°00' W 006°22'812.9
2015-Jul-28 03:33N 35°58' W 006°12'221 8.7
2015-Jul-27 02:12N 36°30' W 001°40'839.7
2015-Jul-27 02:00N 36°30' W 001°30'3 6.5 260 / 101013.6 5.4 0.527.524.729.0
2015-Jul-27 01:33N 36°31' W 001°27'3316.7
2015-Jul-26 23:33N 36°35' W 000°46'1716.7
2015-Jul-26 22:33N 36°37' W 000°25'1018.4
2015-Jul-26 22:00N 36°36' W 000°12'716.3 999 / 41015.710.8 0.527.024.128.0
2015-Jul-26 21:33N 36°40' W 000°04'1716.7
2015-Jul-26 20:33N 36°42' E 000°16'1716.8
2015-Jul-26 19:33N 36°44' E 000°37'1716.9
2015-Jul-26 18:33N 36°47' E 000°58'1817.5
2015-Jul-26 17:33N 36°49' E 001°20'1818.0
2015-Jul-26 16:33N 36°51' E 001°42'1817.6
2015-Jul-26 15:33N 36°53' E 002°04'1817.5
2015-Jul-26 14:33N 36°56' E 002°26'7616.6
2015-Jul-26 10:00N 37°00' E 004°00'6315.8 999 / 41017.210.8 0.531.524.427.2
2015-Jul-26 06:00N 37°12' E 005°18'12518.2 050 / 61016.810.8 26.522.727.3
2015-Jul-25 23:07N 37°30' E 007°54'916.8
2015-Jul-25 22:33N 37°31' E 008°05'5 9.7
2015-Jul-25 22:00N 37°30' E 008°12'6318.1 030 / 61016.010.8 0.526.023.127.7
2015-Jul-25 18:32N 37°39' E 009°30'6315.9
2015-Jul-25 14:33N 37°32' E 010°50'2415.4
2015-Jul-25 13:00N 37°24' E 011°18'8116.8 320 / 101013.8 5.4 0.527.523.927.0
2015-Jul-25 08:09N 36°48' E 012°49'640.4
2015-Jul-25 08:00N 36°42' E 012°48'1420.8 320 / 161012.7 5.4 1.527.026.327.0
2015-Jul-25 07:20N 36°44' E 013°05'3216.3
2015-Jul-25 05:23N 36°33' E 013°42'1416.5
2015-Jul-25 04:32N 36°29' E 013°59'1616.5
2015-Jul-25 03:34N 36°25' E 014°18'1716.7
2015-Jul-25 02:33N 36°20' E 014°39'2117.1
2015-Jul-25 01:20N 36°13' E 015°02'1417.3
2015-Jul-25 00:34N 36°09' E 015°19'1817.4
2015-Jul-24 23:33N 36°05' E 015°40'64216.6
2015-Jul-23 09:00N 32°48' E 028°00'6717.8 250 / 101008.710.8 0.528.022.126.9
2015-Jul-23 05:13N 32°30' E 029°17'4617.1
2015-Jul-23 02:32N 32°16' E 030°08'1917.3
2015-Jul-23 01:27N 32°10' E 030°30'1617.4
2015-Jul-23 00:33N 32°05' E 030°47'2317.3
2015-Jul-22 23:13N 31°58' E 031°13'2816.7
2015-Jul-22 21:31N 31°50' E 031°45'1616.2
2015-Jul-22 20:34N 31°43' E 032°01'1716.8
2015-Jul-22 19:33N 31°32' E 032°16'1414.3
2015-Jul-22 18:33N 31°18' E 032°22'  
Track history (hours):
 
Tides and Currents Weather Stations Pressure Air Temp Water Temp Dewpoint Dewpoint Depression Visibility Wind Speed Wind Dir Waves Ship Positions

Maersk_kyrenia

Last reported at 2015-Aug-01 17:34 UTC. Time now 2015-Aug-01 18:14 UTC.
Position N 51°58' E 001°17'.

Length 300 m; draft 12.4 m.

MMSI: 477733600.

Date/timePositionNaut miles runAvg speedWind from/ knotsBaromVisibWave heightAir tempDewpointWater temp
2015-Aug-01 17:34N 51°58' E 001°17'0 0.0
2015-Aug-01 16:33N 51°58' E 001°17'0 0.0
2015-Aug-01 15:34N 51°58' E 001°17'0 0.0
2015-Aug-01 14:34N 51°58' E 001°17'0 0.0
2015-Aug-01 13:34N 51°58' E 001°17'0 0.0
2015-Aug-01 12:33N 51°58' E 001°17'0 0.0
2015-Aug-01 11:34N 51°58' E 001°17'0 0.0
2015-Aug-01 10:34N 51°58' E 001°17'0 0.0
2015-Aug-01 09:33N 51°58' E 001°17'0 0.0
2015-Aug-01 08:33N 51°58' E 001°17'0 0.5
2015-Aug-01 07:34N 51°57' E 001°18'7 7.5
2015-Aug-01 06:33N 51°56' E 001°30'9 9.1
2015-Aug-01 05:34N 51°51' E 001°42'4 3.6
2015-Aug-01 04:33N 51°53' E 001°48'1 0.7
2015-Aug-01 03:33N 51°52' E 001°48'6 5.9
2015-Aug-01 02:34N 51°46' E 001°49'8 8.0
2015-Aug-01 01:33N 51°38' E 001°50'1110.5
2015-Aug-01 00:34N 51°28' E 001°46'1111.0
2015-Jul-31 23:34N 51°18' E 001°41'1211.5
2015-Jul-31 22:33N 51°06' E 001°40'1414.3
2015-Jul-31 21:34N 50°54' E 001°29'1313.0
2015-Jul-31 20:33N 50°42' E 001°19'1313.2
2015-Jul-31 19:33N 50°33' E 001°04'1313.0
2015-Jul-31 18:34N 50°29' E 000°44'1312.5
2015-Jul-31 17:33N 50°25' E 000°26'5811.1
2015-Jul-31 12:17N 50°09' W 001°02'2112.4
2015-Jul-31 10:33N 50°03' W 001°34'1414.4
2015-Jul-31 09:34N 49°59' W 001°56'48313.6
2015-Jul-29 22:00N 43°42' W 009°18'5112.8 050 / 191018.9 5.4 2.018.012.719.0
2015-Jul-29 18:00N 42°54' W 009°42'5413.5 040 / 191016.7 5.4 2.018.014.620.4
2015-Jul-29 14:00N 42°00' W 009°48'7214.4 280 / 61017.1 5.4 0.523.018.321.0
2015-Jul-29 09:00N 40°48' W 009°48'6614.1 340 / 101018.310.8 0.522.018.919.3
2015-Jul-29 04:19N 39°42' W 009°51'1013.7
2015-Jul-29 03:33N 39°32' W 009°51'1413.9
2015-Jul-29 02:34N 39°18' W 009°51'1413.9
2015-Jul-29 01:33N 39°04' W 009°52'1413.9
2015-Jul-29 00:33N 38°50' W 009°52'1413.8
2015-Jul-28 23:33N 38°36' W 009°49'1413.5
2015-Jul-28 22:33N 38°23' W 009°46'1313.1
2015-Jul-28 21:33N 38°10' W 009°42'1313.2
2015-Jul-28 20:33N 37°57' W 009°38'1313.4
2015-Jul-28 19:33N 37°44' W 009°34'1313.2
2015-Jul-28 18:32N 37°31' W 009°30'3258.4
2015-Jul-28 18:00N 37°00' W 009°24'1944.3 350 / 291015.5 5.4 4.020.016.720.1
2015-Jul-28 17:33N 37°19' W 009°27'5911.8
2015-Jul-28 12:33N 36°36' W 008°36'1513.5
2015-Jul-28 11:25N 36°31' W 008°18'1313.7
2015-Jul-28 10:27N 36°27' W 008°03'1313.9
2015-Jul-28 09:32N 36°23' W 007°48'2013.9
2015-Jul-28 08:07N 36°17' W 007°24'5313.6
2015-Jul-28 04:12N 36°00' W 006°22'812.9
2015-Jul-28 03:33N 35°58' W 006°12'221 8.7
2015-Jul-27 02:12N 36°30' W 001°40'839.7
2015-Jul-27 02:00N 36°30' W 001°30'3 6.5 260 / 101013.6 5.4 0.527.524.729.0
2015-Jul-27 01:33N 36°31' W 001°27'3316.7
2015-Jul-26 23:33N 36°35' W 000°46'1716.7
2015-Jul-26 22:33N 36°37' W 000°25'1018.4
2015-Jul-26 22:00N 36°36' W 000°12'716.3 999 / 41015.710.8 0.527.024.128.0
2015-Jul-26 21:33N 36°40' W 000°04'1716.7
2015-Jul-26 20:33N 36°42' E 000°16'1716.8
2015-Jul-26 19:33N 36°44' E 000°37'1716.9
2015-Jul-26 18:33N 36°47' E 000°58'1817.5
2015-Jul-26 17:33N 36°49' E 001°20'1818.0
2015-Jul-26 16:33N 36°51' E 001°42'1817.6
2015-Jul-26 15:33N 36°53' E 002°04'1817.5
2015-Jul-26 14:33N 36°56' E 002°26'7616.6
2015-Jul-26 10:00N 37°00' E 004°00'6315.8 999 / 41017.210.8 0.531.524.427.2
2015-Jul-26 06:00N 37°12' E 005°18'12518.2 050 / 61016.810.8 26.522.727.3
2015-Jul-25 23:07N 37°30' E 007°54'916.8
2015-Jul-25 22:33N 37°31' E 008°05'5 9.7
2015-Jul-25 22:00N 37°30' E 008°12'6318.1 030 / 61016.010.8 0.526.023.127.7
2015-Jul-25 18:32N 37°39' E 009°30'6315.9
2015-Jul-25 14:33N 37°32' E 010°50'2415.4
2015-Jul-25 13:00N 37°24' E 011°18'8116.8 320 / 101013.8 5.4 0.527.523.927.0
2015-Jul-25 08:09N 36°48' E 012°49'640.4
2015-Jul-25 08:00N 36°42' E 012°48'1420.8 320 / 161012.7 5.4 1.527.026.327.0
2015-Jul-25 07:20N 36°44' E 013°05'3216.3
2015-Jul-25 05:23N 36°33' E 013°42'1416.5
2015-Jul-25 04:32N 36°29' E 013°59'1616.5
2015-Jul-25 03:34N 36°25' E 014°18'1716.7
2015-Jul-25 02:33N 36°20' E 014°39'2117.1
2015-Jul-25 01:20N 36°13' E 015°02'1417.3
2015-Jul-25 00:34N 36°09' E 015°19'1817.4
2015-Jul-24 23:33N 36°05' E 015°40'64216.6
2015-Jul-23 09:00N 32°48' E 028°00'6717.8 250 / 101008.710.8 0.528.022.126.9
2015-Jul-23 05:13N 32°30' E 029°17'4617.1
2015-Jul-23 02:32N 32°16' E 030°08'1917.3
2015-Jul-23 01:27N 32°10' E 030°30'1617.4
2015-Jul-23 00:33N 32°05' E 030°47'2317.3
2015-Jul-22 23:13N 31°58' E 031°13'2816.7
2015-Jul-22 21:31N 31°50' E 031°45'1616.2
2015-Jul-22 20:34N 31°43' E 032°01'1716.8
2015-Jul-22 19:33N 31°32' E 032°16'1414.3
2015-Jul-22 18:33N 31°18' E 032°22'  

Dump ship's entire track history